sensor_id;sensor_type;location;lat;lon;timestamp;pressure;altitude;pressure_sealevel;temperature;humidity
22580;BME280;11456;47.030;15.396;2022-12-22T00:01:57;97575.28;;;1.32;99.49
22580;BME280;11456;47.030;15.396;2022-12-22T00:04:43;97570.09;;;1.16;99.34
22580;BME280;11456;47.030;15.396;2022-12-22T00:07:30;97571.41;;;1.09;100.00
22580;BME280;11456;47.030;15.396;2022-12-22T00:10:15;97566.50;;;1.17;100.00
22580;BME280;11456;47.030;15.396;2022-12-22T00:13:00;97556.50;;;1.08;100.00
22580;BME280;11456;47.030;15.396;2022-12-22T00:15:45;97561.03;;;1.06;100.00
22580;BME280;11456;47.030;15.396;2022-12-22T00:18:30;97567.47;;;1.02;100.00
22580;BME280;11456;47.030;15.396;2022-12-22T00:21:15;97573.72;;;1.01;100.00
22580;BME280;11456;47.030;15.396;2022-12-22T00:24:00;97569.09;;;1.59;100.00
22580;BME280;11456;47.030;15.396;2022-12-22T00:26:46;97571.75;;;1.45;98.98
22580;BME280;11456;47.030;15.396;2022-12-22T00:29:34;97575.94;;;1.35;99.29
22580;BME280;11456;47.030;15.396;2022-12-22T00:32:21;97564.53;;;1.47;99.26
22580;BME280;11456;47.030;15.396;2022-12-22T00:35:10;97559.00;;;1.65;99.41
22580;BME280;11456;47.030;15.396;2022-12-22T00:37:56;97552.00;;;1.64;97.99
22580;BME280;11456;47.030;15.396;2022-12-22T00:40:40;97551.84;;;1.52;98.50
22580;BME280;11456;47.030;15.396;2022-12-22T00:43:26;97544.63;;;1.54;98.40
22580;BME280;11456;47.030;15.396;2022-12-22T00:46:11;97544.09;;;1.35;98.88
22580;BME280;11456;47.030;15.396;2022-12-22T00:48:58;97529.88;;;1.36;98.87
22580;BME280;11456;47.030;15.396;2022-12-22T00:51:43;97535.69;;;1.29;99.10
22580;BME280;11456;47.030;15.396;2022-12-22T00:54:28;97540.50;;;1.36;98.80
22580;BME280;11456;47.030;15.396;2022-12-22T00:57:15;97559.63;;;1.41;98.61
22580;BME280;11456;47.030;15.396;2022-12-22T01:00:02;97552.13;;;1.21;99.10
22580;BME280;11456;47.030;15.396;2022-12-22T01:02:48;97543.31;;;1.47;98.67
22580;BME280;11456;47.030;15.396;2022-12-22T01:05:33;97547.00;;;1.18;98.65
22580;BME280;11456;47.030;15.396;2022-12-22T01:08:18;97542.63;;;1.03;99.81
22580;BME280;11456;47.030;15.396;2022-12-22T01:11:03;97547.91;;;1.31;99.15
22580;BME280;11456;47.030;15.396;2022-12-22T01:13:48;97546.19;;;1.30;99.00
22580;BME280;11456;47.030;15.396;2022-12-22T01:16:33;97548.31;;;1.25;99.12
22580;BME280;11456;47.030;15.396;2022-12-22T01:19:19;97542.13;;;1.66;98.10
22580;BME280;11456;47.030;15.396;2022-12-22T01:22:06;97539.53;;;1.51;97.25
22580;BME280;11456;47.030;15.396;2022-12-22T01:24:52;97545.59;;;1.53;98.27
22580;BME280;11456;47.030;15.396;2022-12-22T01:27:36;97542.44;;;1.34;98.52
22580;BME280;11456;47.030;15.396;2022-12-22T01:30:21;97535.00;;;1.39;98.88
22580;BME280;11456;47.030;15.396;2022-12-22T01:33:10;97539.44;;;1.92;95.90
22580;BME280;11456;47.030;15.396;2022-12-22T01:35:55;97536.50;;;1.43;97.77
22580;BME280;11456;47.030;15.396;2022-12-22T01:38:40;97545.34;;;1.30;99.00
22580;BME280;11456;47.030;15.396;2022-12-22T01:41:25;97556.63;;;1.33;99.66
22580;BME280;11456;47.030;15.396;2022-12-22T01:44:14;97548.09;;;1.28;99.72
22580;BME280;11456;47.030;15.396;2022-12-22T01:50:04;97526.09;;;1.40;99.62
22580;BME280;11456;47.030;15.396;2022-12-22T01:52:49;97529.06;;;1.63;99.54
22580;BME280;11456;47.030;15.396;2022-12-22T01:55:38;97521.13;;;1.75;97.99
22580;BME280;11456;47.030;15.396;2022-12-22T01:58:25;97505.50;;;1.71;97.74
22580;BME280;11456;47.030;15.396;2022-12-22T02:01:11;97500.41;;;1.68;97.03
22580;BME280;11456;47.030;15.396;2022-12-22T02:03:57;97508.44;;;1.53;98.52
22580;BME280;11456;47.030;15.396;2022-12-22T02:06:42;97510.59;;;1.34;98.34
22580;BME280;11456;47.030;15.396;2022-12-22T02:15:21;97511.69;;;1.44;99.55
22580;BME280;11456;47.030;15.396;2022-12-22T02:18:11;97502.78;;;1.45;98.88
22580;BME280;11456;47.030;15.396;2022-12-22T02:21:02;97508.66;;;1.36;99.20
22580;BME280;11456;47.030;15.396;2022-12-22T02:26:49;97509.38;;;1.52;98.58
22580;BME280;11456;47.030;15.396;2022-12-22T02:29:38;97494.91;;;1.44;97.93
22580;BME280;11456;47.030;15.396;2022-12-22T02:32:24;97499.06;;;1.21;98.58
22580;BME280;11456;47.030;15.396;2022-12-22T02:35:10;97496.97;;;1.26;98.42
22580;BME280;11456;47.030;15.396;2022-12-22T02:47:17;97484.75;;;1.09;97.94
22580;BME280;11456;47.030;15.396;2022-12-22T02:50:04;97490.75;;;0.99;97.35
22580;BME280;11456;47.030;15.396;2022-12-22T02:52:52;97486.41;;;0.84;98.14
22580;BME280;11456;47.030;15.396;2022-12-22T02:55:39;97489.06;;;0.84;98.25
22580;BME280;11456;47.030;15.396;2022-12-22T02:58:24;97483.22;;;0.78;98.49
22580;BME280;11456;47.030;15.396;2022-12-22T03:01:09;97489.44;;;0.77;98.09
22580;BME280;11456;47.030;15.396;2022-12-22T03:03:55;97491.16;;;0.64;98.53
22580;BME280;11456;47.030;15.396;2022-12-22T03:06:40;97475.69;;;0.44;98.34
22580;BME280;11456;47.030;15.396;2022-12-22T03:09:25;97474.16;;;0.40;98.45
22580;BME280;11456;47.030;15.396;2022-12-22T03:12:10;97478.50;;;0.27;98.95
22580;BME280;11456;47.030;15.396;2022-12-22T03:14:55;97484.75;;;0.12;98.92
22580;BME280;11456;47.030;15.396;2022-12-22T03:17:40;97485.69;;;0.25;99.56
22580;BME280;11456;47.030;15.396;2022-12-22T03:20:25;97478.13;;;0.19;100.00
22580;BME280;11456;47.030;15.396;2022-12-22T03:23:10;97479.06;;;0.18;100.00
22580;BME280;11456;47.030;15.396;2022-12-22T03:25:55;97483.63;;;0.30;100.00
22580;BME280;11456;47.030;15.396;2022-12-22T03:28:23;97485.81;;;0.37;99.85
22580;BME280;11456;47.030;15.396;2022-12-22T03:30:53;97485.13;;;0.34;99.55
22580;BME280;11456;47.030;15.396;2022-12-22T03:33:20;97479.81;;;0.34;99.66
22580;BME280;11456;47.030;15.396;2022-12-22T03:35:47;97474.53;;;0.34;99.30
22580;BME280;11456;47.030;15.396;2022-12-22T03:38:14;97471.59;;;0.38;99.45
22580;BME280;11456;47.030;15.396;2022-12-22T03:40:40;97473.97;;;0.43;99.56
22580;BME280;11456;47.030;15.396;2022-12-22T03:43:13;97474.34;;;0.37;99.31
22580;BME280;11456;47.030;15.396;2022-12-22T03:45:59;97476.13;;;0.22;99.94
22580;BME280;11456;47.030;15.396;2022-12-22T03:48:44;97483.41;;;0.33;100.00
22580;BME280;11456;47.030;15.396;2022-12-22T03:51:31;97493.25;;;0.17;100.00
22580;BME280;11456;47.030;15.396;2022-12-22T03:53:58;97493.63;;;0.11;100.00
22580;BME280;11456;47.030;15.396;2022-12-22T03:56:25;97493.06;;;0.34;100.00
22580;BME280;11456;47.030;15.396;2022-12-22T03:58:51;97490.25;;;0.51;100.00
22580;BME280;11456;47.030;15.396;2022-12-22T04:01:18;97489.19;;;0.39;100.00
22580;BME280;11456;47.030;15.396;2022-12-22T04:03:44;97482.19;;;0.67;100.00
22580;BME280;11456;47.030;15.396;2022-12-22T04:06:11;97474.91;;;0.70;100.00
22580;BME280;11456;47.030;15.396;2022-12-22T04:08:37;97470.56;;;0.69;100.00
22580;BME280;11456;47.030;15.396;2022-12-22T04:11:04;97472.06;;;0.73;100.00
22580;BME280;11456;47.030;15.396;2022-12-22T04:13:49;97468.84;;;0.40;100.00
22580;BME280;11456;47.030;15.396;2022-12-22T04:16:15;97470.94;;;0.35;100.00
22580;BME280;11456;47.030;15.396;2022-12-22T04:18:42;97472.25;;;0.42;100.00
22580;BME280;11456;47.030;15.396;2022-12-22T04:21:08;97478.50;;;0.69;100.00
22580;BME280;11456;47.030;15.396;2022-12-22T04:23:35;97480.94;;;0.72;100.00
22580;BME280;11456;47.030;15.396;2022-12-22T04:26:01;97469.78;;;0.67;100.00
22580;BME280;11456;47.030;15.396;2022-12-22T04:28:28;97456.94;;;0.61;100.00
22580;BME280;11456;47.030;15.396;2022-12-22T04:30:54;97458.44;;;0.65;100.00
22580;BME280;11456;47.030;15.396;2022-12-22T04:33:21;97451.41;;;0.78;100.00
22580;BME280;11456;47.030;15.396;2022-12-22T04:35:47;97446.88;;;0.66;100.00
22580;BME280;11456;47.030;15.396;2022-12-22T04:38:14;97458.25;;;0.68;100.00
22580;BME280;11456;47.030;15.396;2022-12-22T04:40:40;97446.69;;;0.69;100.00
22580;BME280;11456;47.030;15.396;2022-12-22T04:43:07;97442.88;;;0.88;100.00
22580;BME280;11456;47.030;15.396;2022-12-22T04:45:33;97443.66;;;0.75;100.00
22580;BME280;11456;47.030;15.396;2022-12-22T04:48:00;97447.81;;;0.65;100.00
22580;BME280;11456;47.030;15.396;2022-12-22T04:50:26;97442.72;;;0.76;100.00
22580;BME280;11456;47.030;15.396;2022-12-22T04:52:53;97440.72;;;0.66;99.90
22580;BME280;11456;47.030;15.396;2022-12-22T04:55:19;97441.19;;;0.72;100.00
22580;BME280;11456;47.030;15.396;2022-12-22T04:57:46;97427.75;;;0.75;100.00
22580;BME280;11456;47.030;15.396;2022-12-22T05:00:12;97429.66;;;0.73;99.88
22580;BME280;11456;47.030;15.396;2022-12-22T05:02:39;97432.50;;;0.70;99.70
22580;BME280;11456;47.030;15.396;2022-12-22T05:05:06;97435.72;;;0.61;99.39
22580;BME280;11456;47.030;15.396;2022-12-22T05:07:33;97428.00;;;0.44;99.60
22580;BME280;11456;47.030;15.396;2022-12-22T05:09:59;97428.38;;;0.38;99.41
22580;BME280;11456;47.030;15.396;2022-12-22T05:12:25;97432.53;;;0.28;99.75
22580;BME280;11456;47.030;15.396;2022-12-22T05:15:11;97427.22;;;0.28;99.52
22580;BME280;11456;47.030;15.396;2022-12-22T05:17:38;97437.06;;;0.26;99.16
22580;BME280;11456;47.030;15.396;2022-12-22T05:20:04;97437.66;;;0.31;99.14
22580;BME280;11456;47.030;15.396;2022-12-22T05:22:31;97442.56;;;0.37;98.81
22580;BME280;11456;47.030;15.396;2022-12-22T05:24:57;97428.56;;;0.35;99.43
22580;BME280;11456;47.030;15.396;2022-12-22T05:27:24;97436.59;;;0.48;99.46
22580;BME280;11456;47.030;15.396;2022-12-22T05:29:50;97429.50;;;0.20;99.46
22580;BME280;11456;47.030;15.396;2022-12-22T05:32:17;97424.03;;;0.23;100.00
22580;BME280;11456;47.030;15.396;2022-12-22T05:34:43;97430.44;;;0.33;99.30
22580;BME280;11456;47.030;15.396;2022-12-22T05:37:10;97434.41;;;0.26;98.88
22580;BME280;11456;47.030;15.396;2022-12-22T05:39:36;97433.50;;;0.13;98.53
22580;BME280;11456;47.030;15.396;2022-12-22T05:42:03;97436.59;;;0.05;99.15
22580;BME280;11456;47.030;15.396;2022-12-22T05:44:29;97440.28;;;0.17;98.98
22580;BME280;11456;47.030;15.396;2022-12-22T05:46:56;97438.41;;;0.19;98.64
22580;BME280;11456;47.030;15.396;2022-12-22T05:49:22;97441.97;;;0.04;98.07
22580;BME280;11456;47.030;15.396;2022-12-22T05:51:49;97451.41;;;-0.21;98.81
22580;BME280;11456;47.030;15.396;2022-12-22T05:54:16;97447.81;;;-0.06;98.86
22580;BME280;11456;47.030;15.396;2022-12-22T05:56:43;97447.63;;;-0.17;98.87
22580;BME280;11456;47.030;15.396;2022-12-22T05:59:10;97447.06;;;-0.08;98.92
22580;BME280;11456;47.030;15.396;2022-12-22T06:01:37;97457.78;;;-0.25;98.41
22580;BME280;11456;47.030;15.396;2022-12-22T06:04:03;97463.84;;;-0.23;98.24
22580;BME280;11456;47.030;15.396;2022-12-22T06:06:30;97458.41;;;-0.20;98.29
22580;BME280;11456;47.030;15.396;2022-12-22T06:08:57;97458.94;;;-0.29;98.21
22580;BME280;11456;47.030;15.396;2022-12-22T06:11:23;97461.53;;;-0.43;98.96
22580;BME280;11456;47.030;15.396;2022-12-22T06:13:50;97461.03;;;-0.20;98.80
22580;BME280;11456;47.030;15.396;2022-12-22T06:16:16;97451.31;;;-0.19;98.42
22580;BME280;11456;47.030;15.396;2022-12-22T06:18:43;97454.13;;;-0.22;98.28
22580;BME280;11456;47.030;15.396;2022-12-22T06:21:09;97450.47;;;-0.06;98.04
22580;BME280;11456;47.030;15.396;2022-12-22T06:23:36;97450.19;;;-0.15;97.83
22580;BME280;11456;47.030;15.396;2022-12-22T06:26:02;97443.41;;;-0.35;97.63
22580;BME280;11456;47.030;15.396;2022-12-22T06:28:28;97441.53;;;-0.33;97.57
22580;BME280;11456;47.030;15.396;2022-12-22T06:30:56;97452.78;;;-0.29;98.57
22580;BME280;11456;47.030;15.396;2022-12-22T06:33:22;97456.44;;;-0.32;98.50
22580;BME280;11456;47.030;15.396;2022-12-22T06:35:49;97456.69;;;-0.21;97.77
22580;BME280;11456;47.030;15.396;2022-12-22T06:38:24;97452.13;;;-0.33;97.63
22580;BME280;11456;47.030;15.396;2022-12-22T06:40:50;97459.25;;;-0.19;98.16
22580;BME280;11456;47.030;15.396;2022-12-22T06:43:17;97455.34;;;-0.28;98.38
22580;BME280;11456;47.030;15.396;2022-12-22T06:45:43;97455.56;;;-0.17;98.33
22580;BME280;11456;47.030;15.396;2022-12-22T06:48:11;97450.63;;;-0.23;98.59
22580;BME280;11456;47.030;15.396;2022-12-22T06:50:38;97449.13;;;-0.13;97.86
22580;BME280;11456;47.030;15.396;2022-12-22T06:53:05;97444.19;;;-0.19;98.01
22580;BME280;11456;47.030;15.396;2022-12-22T06:55:32;97430.59;;;-0.27;97.64
22580;BME280;11456;47.030;15.396;2022-12-22T06:57:59;97436.88;;;-0.44;97.97
22580;BME280;11456;47.030;15.396;2022-12-22T07:00:25;97436.50;;;-0.52;98.61
22580;BME280;11456;47.030;15.396;2022-12-22T07:02:52;97447.38;;;-0.42;99.19
22580;BME280;11456;47.030;15.396;2022-12-22T07:05:19;97443.41;;;-0.35;98.74
22580;BME280;11456;47.030;15.396;2022-12-22T07:07:45;97441.31;;;-0.44;99.22
22580;BME280;11456;47.030;15.396;2022-12-22T07:10:12;97441.78;;;-0.37;98.26
22580;BME280;11456;47.030;15.396;2022-12-22T07:12:38;97446.06;;;-0.35;99.79
22580;BME280;11456;47.030;15.396;2022-12-22T07:15:05;97447.38;;;-0.42;99.61
22580;BME280;11456;47.030;15.396;2022-12-22T07:17:32;97443.94;;;-0.44;100.00
22580;BME280;11456;47.030;15.396;2022-12-22T07:19:59;97456.97;;;-0.11;100.00
22580;BME280;11456;47.030;15.396;2022-12-22T07:22:25;97453.53;;;0.17;99.67
22580;BME280;11456;47.030;15.396;2022-12-22T07:24:56;97449.16;;;0.58;99.30
22580;BME280;11456;47.030;15.396;2022-12-22T07:27:22;97439.94;;;0.92;98.76
22580;BME280;11456;47.030;15.396;2022-12-22T07:29:49;97436.34;;;1.47;98.45
22580;BME280;11456;47.030;15.396;2022-12-22T07:32:15;97437.44;;;1.70;97.49
22580;BME280;11456;47.030;15.396;2022-12-22T07:34:42;97440.38;;;1.92;96.14
22580;BME280;11456;47.030;15.396;2022-12-22T07:37:08;97440.41;;;1.65;95.07
22580;BME280;11456;47.030;15.396;2022-12-22T07:39:35;97437.72;;;1.92;96.30
22580;BME280;11456;47.030;15.396;2022-12-22T07:42:01;97430.91;;;2.13;93.12
22580;BME280;11456;47.030;15.396;2022-12-22T07:44:46;97427.59;;;2.97;93.97
22580;BME280;11456;47.030;15.396;2022-12-22T07:47:13;97428.50;;;2.72;91.63
22580;BME280;11456;47.030;15.396;2022-12-22T07:49:39;97441.09;;;2.45;92.61
22580;BME280;11456;47.030;15.396;2022-12-22T07:52:24;97435.50;;;2.36;93.28
22580;BME280;11456;47.030;15.396;2022-12-22T07:54:51;97429.44;;;2.09;93.48
22580;BME280;11456;47.030;15.396;2022-12-22T07:57:17;97425.59;;;2.13;94.15
22580;BME280;11456;47.030;15.396;2022-12-22T07:59:44;97427.53;;;2.36;93.25
22580;BME280;11456;47.030;15.396;2022-12-22T08:02:10;97420.53;;;2.72;92.15
22580;BME280;11456;47.030;15.396;2022-12-22T08:04:38;97412.13;;;2.78;90.14
22580;BME280;11456;47.030;15.396;2022-12-22T08:07:04;97418.13;;;2.56;90.44
22580;BME280;11456;47.030;15.396;2022-12-22T08:09:31;97416.56;;;2.41;91.60
22580;BME280;11456;47.030;15.396;2022-12-22T08:11:57;97409.22;;;2.19;91.63
22580;BME280;11456;47.030;15.396;2022-12-22T08:14:24;97419.13;;;2.30;93.33
22580;BME280;11456;47.030;15.396;2022-12-22T08:16:50;97412.63;;;2.21;94.35
22580;BME280;11456;47.030;15.396;2022-12-22T08:19:17;97403.72;;;2.22;93.59
22580;BME280;11456;47.030;15.396;2022-12-22T08:21:43;97404.88;;;2.18;95.29
22580;BME280;11456;47.030;15.396;2022-12-22T08:24:18;97409.88;;;2.10;95.63
22580;BME280;11456;47.030;15.396;2022-12-22T08:26:45;97415.63;;;2.29;94.90
22580;BME280;11456;47.030;15.396;2022-12-22T08:29:13;97421.03;;;2.28;94.58
22580;BME280;11456;47.030;15.396;2022-12-22T08:31:41;97426.66;;;2.23;94.89
22580;BME280;11456;47.030;15.396;2022-12-22T08:34:09;97419.84;;;2.07;95.14
22580;BME280;11456;47.030;15.396;2022-12-22T08:36:39;97419.84;;;1.94;96.32
22580;BME280;11456;47.030;15.396;2022-12-22T08:39:07;97416.88;;;1.98;95.42
22580;BME280;11456;47.030;15.396;2022-12-22T08:41:33;97424.88;;;2.11;96.03
22580;BME280;11456;47.030;15.396;2022-12-22T08:44:23;97416.56;;;2.03;94.53
22580;BME280;11456;47.030;15.396;2022-12-22T08:46:50;97421.34;;;1.98;95.03
22580;BME280;11456;47.030;15.396;2022-12-22T08:49:17;97418.09;;;1.68;96.72
22580;BME280;11456;47.030;15.396;2022-12-22T08:51:44;97416.97;;;1.84;96.50
22580;BME280;11456;47.030;15.396;2022-12-22T08:54:10;97410.72;;;2.23;95.94
22580;BME280;11456;47.030;15.396;2022-12-22T08:56:37;97416.03;;;2.23;96.05
22580;BME280;11456;47.030;15.396;2022-12-22T08:59:04;97412.50;;;2.97;95.69
22580;BME280;11456;47.030;15.396;2022-12-22T09:01:34;97415.78;;;3.48;92.72
22580;BME280;11456;47.030;15.396;2022-12-22T09:04:02;97406.88;;;3.95;89.79
22580;BME280;11456;47.030;15.396;2022-12-22T09:06:29;97406.34;;;3.79;87.67
22580;BME280;11456;47.030;15.396;2022-12-22T09:09:06;97412.97;;;4.09;88.24
22580;BME280;11456;47.030;15.396;2022-12-22T09:11:33;97418.31;;;4.31;86.02
22580;BME280;11456;47.030;15.396;2022-12-22T09:14:00;97407.19;;;4.59;84.10
22580;BME280;11456;47.030;15.396;2022-12-22T09:16:28;97405.47;;;4.92;82.58
22580;BME280;11456;47.030;15.396;2022-12-22T09:18:55;97393.25;;;5.21;81.66
22580;BME280;11456;47.030;15.396;2022-12-22T09:21:22;97383.09;;;5.15;82.87
22580;BME280;11456;47.030;15.396;2022-12-22T09:23:48;97389.66;;;5.75;81.48
22580;BME280;11456;47.030;15.396;2022-12-22T09:26:19;97385.47;;;5.93;78.63
22580;BME280;11456;47.030;15.396;2022-12-22T09:28:46;97384.34;;;6.16;78.38
22580;BME280;11456;47.030;15.396;2022-12-22T09:31:16;97382.63;;;6.15;76.62
22580;BME280;11456;47.030;15.396;2022-12-22T09:33:43;97369.88;;;5.45;79.38
22580;BME280;11456;47.030;15.396;2022-12-22T09:36:11;97372.13;;;6.84;78.85
22580;BME280;11456;47.030;15.396;2022-12-22T09:38:38;97356.84;;;7.24;75.66
22580;BME280;11456;47.030;15.396;2022-12-22T09:41:08;97353.13;;;5.96;75.54
22580;BME280;11456;47.030;15.396;2022-12-22T09:43:35;97345.94;;;5.76;80.37
22580;BME280;11456;47.030;15.396;2022-12-22T09:46:02;97349.22;;;5.47;79.71
22580;BME280;11456;47.030;15.396;2022-12-22T09:48:33;97347.25;;;6.02;78.26
22580;BME280;11456;47.030;15.396;2022-12-22T09:51:00;97350.75;;;5.82;77.71
22580;BME280;11456;47.030;15.396;2022-12-22T09:53:27;97337.31;;;5.51;79.25
22580;BME280;11456;47.030;15.396;2022-12-22T09:55:53;97330.53;;;5.47;80.07
22580;BME280;11456;47.030;15.396;2022-12-22T09:58:22;97325.56;;;5.22;80.54
22580;BME280;11456;47.030;15.396;2022-12-22T10:01:07;97327.47;;;5.52;82.11
22580;BME280;11456;47.030;15.396;2022-12-22T10:09:10;97319.19;;;6.17;79.39
22580;BME280;11456;47.030;15.396;2022-12-22T10:12:00;97313.94;;;6.36;79.00
22580;BME280;11456;47.030;15.396;2022-12-22T10:14:34;97313.56;;;7.00;77.57
22580;BME280;11456;47.030;15.396;2022-12-22T10:17:16;97313.84;;;6.97;76.17
22580;BME280;11456;47.030;15.396;2022-12-22T10:19:42;97300.44;;;6.78;78.02
22580;BME280;11456;47.030;15.396;2022-12-22T10:22:21;97296.66;;;7.09;76.05
22580;BME280;11456;47.030;15.396;2022-12-22T10:24:50;97301.16;;;7.18;77.95
22580;BME280;11456;47.030;15.396;2022-12-22T10:27:17;97302.88;;;7.39;75.12
22580;BME280;11456;47.030;15.396;2022-12-22T10:29:48;97297.78;;;7.07;75.21
22580;BME280;11456;47.030;15.396;2022-12-22T10:32:15;97276.28;;;6.59;75.31
22580;BME280;11456;47.030;15.396;2022-12-22T10:37:29;97271.63;;;6.61;78.41
22580;BME280;11456;47.030;15.396;2022-12-22T10:39:56;97272.69;;;6.98;78.31
22580;BME280;11456;47.030;15.396;2022-12-22T10:42:23;97266.63;;;7.06;77.94
22580;BME280;11456;47.030;15.396;2022-12-22T10:44:49;97256.34;;;6.82;78.22
22580;BME280;11456;47.030;15.396;2022-12-22T10:47:16;97268.44;;;6.86;78.63
22580;BME280;11456;47.030;15.396;2022-12-22T10:49:50;97264.94;;;7.34;78.51
22580;BME280;11456;47.030;15.396;2022-12-22T10:52:23;97262.97;;;7.55;75.79
22580;BME280;11456;47.030;15.396;2022-12-22T10:55:30;97265.38;;;7.48;75.22
22580;BME280;11456;47.030;15.396;2022-12-22T10:57:51;97266.22;;;6.91;77.76
22580;BME280;11456;47.030;15.396;2022-12-22T11:00:22;97262.53;;;7.11;76.92
22580;BME280;11456;47.030;15.396;2022-12-22T11:02:53;97253.91;;;7.65;74.23
22580;BME280;11456;47.030;15.396;2022-12-22T11:05:20;97235.19;;;7.46;75.29
22580;BME280;11456;47.030;15.396;2022-12-22T11:07:46;97211.63;;;7.96;74.44
22580;BME280;11456;47.030;15.396;2022-12-22T11:23:37;97215.94;;;7.80;72.02
22580;BME280;11456;47.030;15.396;2022-12-22T11:26:17;97210.38;;;8.28;71.56
22580;BME280;11456;47.030;15.396;2022-12-22T11:31:38;97183.19;;;9.21;67.26
22580;BME280;11456;47.030;15.396;2022-12-22T11:39:18;97199.88;;;9.50;64.48
22580;BME280;11456;47.030;15.396;2022-12-22T11:44:23;97186.78;;;10.41;62.96
22580;BME280;11456;47.030;15.396;2022-12-22T11:49:36;97172.50;;;9.29;65.54
22580;BME280;11456;47.030;15.396;2022-12-22T11:57:25;97180.13;;;8.63;68.76
22580;BME280;11456;47.030;15.396;2022-12-22T12:08:23;97167.84;;;8.60;70.09
22580;BME280;11456;47.030;15.396;2022-12-22T12:10:52;97157.78;;;8.98;69.60
22580;BME280;11456;47.030;15.396;2022-12-22T12:26:31;97134.00;;;8.04;73.04
22580;BME280;11456;47.030;15.396;2022-12-22T12:29:23;97141.53;;;8.19;73.19
22580;BME280;11456;47.030;15.396;2022-12-22T12:34:26;97155.13;;;8.07;73.15
22580;BME280;11456;47.030;15.396;2022-12-22T12:37:02;97154.13;;;8.09;73.50
22580;BME280;11456;47.030;15.396;2022-12-22T12:39:36;97163.97;;;8.45;72.78
22580;BME280;11456;47.030;15.396;2022-12-22T12:44:36;97153.84;;;8.39;72.32
22580;BME280;11456;47.030;15.396;2022-12-22T12:47:12;97157.31;;;7.94;74.67
22580;BME280;11456;47.030;15.396;2022-12-22T12:50:28;97170.72;;;7.94;75.65
22580;BME280;11456;47.030;15.396;2022-12-22T12:57:57;97182.41;;;7.66;77.00
22580;BME280;11456;47.030;15.396;2022-12-22T13:00:45;97187.78;;;7.56;77.66
22580;BME280;11456;47.030;15.396;2022-12-22T13:06:11;97185.91;;;7.10;80.60
22580;BME280;11456;47.030;15.396;2022-12-22T13:11:51;97190.13;;;6.94;82.17
22580;BME280;11456;47.030;15.396;2022-12-22T13:14:56;97188.31;;;6.84;82.69
22580;BME280;11456;47.030;15.396;2022-12-22T13:17:40;97185.63;;;6.94;82.83
22580;BME280;11456;47.030;15.396;2022-12-22T13:20:13;97180.41;;;7.02;82.48
22580;BME280;11456;47.030;15.396;2022-12-22T13:22:41;97176.47;;;6.87;82.93
22580;BME280;11456;47.030;15.396;2022-12-22T13:25:14;97176.19;;;6.90;82.98
22580;BME280;11456;47.030;15.396;2022-12-22T13:27:42;97171.53;;;6.92;83.27
22580;BME280;11456;47.030;15.396;2022-12-22T13:30:13;97181.66;;;6.98;83.48
22580;BME280;11456;47.030;15.396;2022-12-22T13:32:40;97182.94;;;7.04;82.78
22580;BME280;11456;47.030;15.396;2022-12-22T13:35:22;97175.72;;;7.23;81.84
22580;BME280;11456;47.030;15.396;2022-12-22T13:38:02;97198.84;;;7.05;82.40
22580;BME280;11456;47.030;15.396;2022-12-22T13:40:41;97202.81;;;7.01;81.94
22580;BME280;11456;47.030;15.396;2022-12-22T13:43:12;97206.47;;;7.19;82.37
22580;BME280;11456;47.030;15.396;2022-12-22T13:45:41;97192.91;;;7.40;81.55
22580;BME280;11456;47.030;15.396;2022-12-22T13:48:11;97195.59;;;7.31;82.49
22580;BME280;11456;47.030;15.396;2022-12-22T13:50:46;97199.50;;;7.36;82.07
22580;BME280;11456;47.030;15.396;2022-12-22T13:53:15;97209.81;;;7.31;82.35
22580;BME280;11456;47.030;15.396;2022-12-22T13:56:07;97210.00;;;6.91;84.10
22580;BME280;11456;47.030;15.396;2022-12-22T13:58:38;97226.91;;;7.20;83.18
22580;BME280;11456;47.030;15.396;2022-12-22T14:03:35;97221.69;;;7.09;84.47
22580;BME280;11456;47.030;15.396;2022-12-22T14:06:32;97217.19;;;7.00;84.71
22580;BME280;11456;47.030;15.396;2022-12-22T14:09:13;97220.00;;;6.89;85.13
22580;BME280;11456;47.030;15.396;2022-12-22T14:11:40;97225.31;;;6.79;85.11
22580;BME280;11456;47.030;15.396;2022-12-22T14:14:24;97232.94;;;6.74;85.78
22580;BME280;11456;47.030;15.396;2022-12-22T14:16:52;97237.47;;;6.83;85.72
22580;BME280;11456;47.030;15.396;2022-12-22T14:19:19;97230.41;;;6.92;85.64
22580;BME280;11456;47.030;15.396;2022-12-22T14:21:47;97205.22;;;7.70;81.86
22580;BME280;11456;47.030;15.396;2022-12-22T14:24:17;97210.41;;;7.15;82.71
22580;BME280;11456;47.030;15.396;2022-12-22T14:26:45;97227.03;;;6.71;86.22
22580;BME280;11456;47.030;15.396;2022-12-22T14:29:20;97245.34;;;6.75;87.43
22580;BME280;11456;47.030;15.396;2022-12-22T14:34:50;97235.28;;;6.39;93.53
22580;BME280;11456;47.030;15.396;2022-12-22T14:37:10;97239.59;;;6.21;95.67
22580;BME280;11456;47.030;15.396;2022-12-22T14:39:36;97238.19;;;6.26;95.42
22580;BME280;11456;47.030;15.396;2022-12-22T14:42:03;97228.03;;;6.20;95.70
22580;BME280;11456;47.030;15.396;2022-12-22T14:44:34;97221.84;;;6.29;94.67
22580;BME280;11456;47.030;15.396;2022-12-22T14:54:48;97229.03;;;5.89;99.62
22580;BME280;11456;47.030;15.396;2022-12-22T14:57:18;97233.84;;;5.95;99.02
22580;BME280;11456;47.030;15.396;2022-12-22T14:59:59;97219.13;;;6.10;98.22
22580;BME280;11456;47.030;15.396;2022-12-22T15:02:31;97221.78;;;6.10;98.34
22580;BME280;11456;47.030;15.396;2022-12-22T15:05:05;97225.44;;;6.09;98.72
22580;BME280;11456;47.030;15.396;2022-12-22T15:07:41;97230.72;;;5.90;98.78
22580;BME280;11456;47.030;15.396;2022-12-22T15:10:32;97247.88;;;5.87;99.88
22580;BME280;11456;47.030;15.396;2022-12-22T15:13:02;97269.13;;;5.68;100.00
22580;BME280;11456;47.030;15.396;2022-12-22T15:15:29;97271.84;;;5.57;100.00
22580;BME280;11456;47.030;15.396;2022-12-22T15:17:56;97273.59;;;5.68;100.00
22580;BME280;11456;47.030;15.396;2022-12-22T15:20:24;97278.31;;;5.54;100.00
22580;BME280;11456;47.030;15.396;2022-12-22T15:22:52;97276.06;;;5.59;100.00